Time;durP1;ratioP1;P1;durP2;ratioP2;P2;SDS_P1;SDS_P2;PMS_P1;PMS_P2;Temp;Humidity;BMP_temperature;BMP_pressure;BME280_temperature;BME280_humidity;BME280_pressure;Samples;Min_cycle;Max_cycle;Signal;HPM_P1;HPM_P2
2021/04/05 00:01:36;;;;;;;39.45;13.43;;;5.40;99.90;;;;;;5049594;28;20040;-85
2021/04/05 00:04:03;;;;;;;35.45;13.75;;;5.40;99.90;;;;;;5051427;28;20048;-85
2021/04/05 00:06:28;;;;;;;27.52;12.55;;;5.40;99.90;;;;;;5035000;28;20052;-85
2021/04/05 00:08:54;;;;;;;31.10;12.68;;;5.40;99.90;;;;;;5051700;28;20055;-85
2021/04/05 00:11:21;;;;;;;38.67;14.68;;;5.50;99.90;;;;;;5049994;28;20115;-85
2021/04/05 00:13:47;;;;;;;31.95;12.45;;;5.40;99.90;;;;;;5042636;28;20052;-85
2021/04/05 00:16:16;;;;;;;40.10;14.18;;;5.50;99.90;;;;;;5034858;28;20040;-85
2021/04/05 00:18:42;;;;;;;34.35;11.32;;;5.50;99.90;;;;;;5042255;28;20480;-84
2021/04/05 00:21:13;;;;;;;36.28;13.00;;;5.60;99.90;;;;;;5051869;28;20087;-84
2021/04/05 00:23:39;;;;;;;40.13;14.30;;;5.70;99.90;;;;;;5059351;28;20040;-84
2021/04/05 00:26:05;;;;;;;41.92;14.73;;;5.70;99.90;;;;;;5051497;28;20039;-85
2021/04/05 00:28:31;;;;;;;41.03;15.63;;;5.80;99.90;;;;;;5069079;28;20044;-85
2021/04/05 00:30:57;;;;;;;43.90;14.38;;;5.80;99.90;;;;;;5051265;28;20037;-85
2021/04/05 00:33:23;;;;;;;32.47;14.05;;;5.80;99.90;;;;;;5042871;28;20102;-84
2021/04/05 00:35:49;;;;;;;42.85;14.10;;;5.90;99.90;;;;;;5034017;28;20044;-85
2021/04/05 00:38:16;;;;;;;48.67;14.30;;;5.90;99.90;;;;;;5034673;28;20117;-85
2021/04/05 00:40:58;;;;;;;46.53;14.75;;;6.00;99.90;;;;;;5068746;28;20128;-85
2021/04/05 00:43:24;;;;;;;59.45;14.52;;;6.00;99.90;;;;;;5043007;28;20133;-84
2021/04/05 00:45:50;;;;;;;53.67;15.07;;;6.20;99.90;;;;;;5050482;28;20676;-85
2021/04/05 00:48:16;;;;;;;43.28;15.38;;;6.20;99.90;;;;;;5018490;28;20040;-84
2021/04/05 00:50:58;;;;;;;39.95;13.38;;;6.30;99.90;;;;;;5034159;28;20072;-84
2021/04/05 00:53:31;;;;;;;44.40;14.30;;;6.30;99.90;;;;;;5069344;28;20079;-84
2021/04/05 00:55:58;;;;;;;40.33;13.70;;;6.40;99.90;;;;;;5050969;28;20437;-84
2021/04/05 00:58:25;;;;;;;51.10;14.60;;;6.40;99.90;;;;;;5057274;28;20041;-84
2021/04/05 01:00:58;;;;;;;50.30;14.05;;;6.50;99.90;;;;;;5067889;28;20090;-84
2021/04/05 01:03:26;;;;;;;39.72;13.98;;;6.50;99.90;;;;;;5051516;28;20037;-84
2021/04/05 01:05:58;;;;;;;43.25;13.38;;;6.60;99.90;;;;;;5050112;28;20069;-84
2021/04/05 01:08:24;;;;;;;55.58;14.68;;;6.70;99.90;;;;;;5069036;28;20048;-84
2021/04/05 01:10:50;;;;;;;45.90;14.35;;;6.70;99.90;;;;;;5050100;28;20043;-85
2021/04/05 01:13:17;;;;;;;57.42;14.13;;;6.70;99.90;;;;;;5047803;28;20032;-84
2021/04/05 01:15:44;;;;;;;49.92;12.30;;;6.80;99.90;;;;;;5050239;28;20044;-84
2021/04/05 01:18:12;;;;;;;35.78;12.23;;;6.80;99.90;;;;;;5051242;28;20041;-85
2021/04/05 01:20:38;;;;;;;46.58;13.68;;;6.80;99.90;;;;;;5050643;28;20071;-84
2021/04/05 01:23:04;;;;;;;50.15;13.88;;;6.80;99.90;;;;;;5048592;28;20064;-84
2021/04/05 01:25:31;;;;;;;47.67;12.45;;;7.00;99.90;;;;;;5050984;28;20075;-84
2021/04/05 01:27:57;;;;;;;51.67;12.80;;;7.00;99.90;;;;;;5068218;28;20582;-84
2021/04/05 01:30:39;;;;;;;41.30;12.82;;;7.00;99.90;;;;;;5030997;28;20120;-85
2021/04/05 01:33:08;;;;;;;51.65;13.93;;;7.00;99.90;;;;;;5050913;28;20043;-86
2021/04/05 01:35:52;;;;;;;42.17;12.65;;;7.00;99.90;;;;;;5042931;28;20048;-84
2021/04/05 01:38:25;;;;;;;41.70;12.20;;;7.10;99.90;;;;;;5067983;28;20064;-86
2021/04/05 01:41:15;;;;;;;51.58;12.75;;;7.10;99.90;;;;;;5050556;28;20040;-85
2021/04/05 01:43:41;;;;;;;;;;;7.20;99.90;;;;;;5068822;28;20507;-85
2021/04/05 01:46:10;;;;;;;47.08;12.13;;;7.30;99.90;;;;;;5066792;28;19927;-85
2021/04/05 01:48:36;;;;;;;38.55;11.70;;;7.30;99.90;;;;;;5050663;28;20123;-85
2021/04/05 01:51:08;;;;;;;33.72;11.48;;;7.40;99.90;;;;;;5050598;28;20170;-85
2021/04/05 01:53:35;;;;;;;40.67;10.35;;;7.40;99.90;;;;;;5068773;28;20115;-85
2021/04/05 01:56:03;;;;;;;32.80;10.43;;;7.30;99.90;;;;;;5049767;28;20090;-85
2021/04/05 01:58:30;;;;;;;28.52;9.57;;;7.50;99.90;;;;;;5068306;28;20366;-84
2021/04/05 02:00:57;;;;;;;36.55;10.32;;;7.40;99.90;;;;;;5049656;28;20055;-86
2021/04/05 02:03:23;;;;;;;34.78;9.90;;;7.50;99.90;;;;;;5068596;28;20048;-85
2021/04/05 02:06:00;;;;;;;33.33;9.10;;;7.50;99.90;;;;;;5032732;28;20075;-85
2021/04/05 02:08:27;;;;;;;28.85;9.23;;;7.50;99.90;;;;;;5050799;28;20058;-85
2021/04/05 02:11:25;;;;;;;38.10;10.25;;;7.50;99.90;;;;;;5071446;28;20028;-85
2021/04/05 02:13:56;;;;;;;35.47;11.95;;;7.50;99.90;;;;;;5071153;28;20041;-85
2021/04/05 02:16:23;;;;;;;28.40;8.85;;;7.50;99.90;;;;;;5045853;28;20119;-85
2021/04/05 02:18:50;;;;;;;31.25;8.98;;;7.50;99.90;;;;;;5053471;28;20070;-85
2021/04/05 02:21:18;;;;;;;35.30;9.07;;;7.60;99.90;;;;;;5067499;28;20124;-85
2021/04/05 02:23:46;;;;;;;36.58;11.35;;;7.50;99.90;;;;;;5053261;28;20048;-85
2021/04/05 02:26:18;;;;;;;43.63;10.55;;;7.40;99.90;;;;;;5062199;28;20453;-85
2021/04/05 02:28:49;;;;;;;35.97;8.93;;;7.30;99.90;;;;;;5036851;28;20057;-85
2021/04/05 02:31:22;;;;;;;33.17;9.45;;;7.30;99.90;;;;;;5069320;28;20127;-85
2021/04/05 02:33:53;;;;;;;41.67;11.43;;;7.10;99.90;;;;;;5043650;28;20045;-84
2021/04/05 02:36:22;;;;;;;32.03;10.90;;;7.00;99.90;;;;;;5067297;28;20060;-84
2021/04/05 02:38:55;;;;;;;39.22;12.82;;;6.90;99.90;;;;;;5052466;28;20059;-84
2021/04/05 02:41:23;;;;;;;40.22;11.98;;;6.80;99.90;;;;;;5057166;28;20045;-84
2021/04/05 02:43:51;;;;;;;40.47;10.98;;;6.80;99.90;;;;;;5070836;28;20094;-84
2021/04/05 02:46:20;;;;;;;35.90;9.38;;;6.80;99.90;;;;;;5053521;28;20083;-84
2021/04/05 02:48:50;;;;;;;38.13;11.65;;;6.70;99.90;;;;;;5069225;28;20040;-85
2021/04/05 02:51:16;;;;;;;37.13;11.10;;;6.70;99.90;;;;;;5053769;28;20055;-84
2021/04/05 02:53:48;;;;;;;37.85;10.35;;;6.70;99.90;;;;;;5069077;28;20539;-85
2021/04/05 02:56:15;;;;;;;43.40;10.93;;;6.70;99.90;;;;;;5053277;28;20059;-85
2021/04/05 02:58:49;;;;;;;30.75;8.50;;;6.70;99.90;;;;;;5033283;28;20051;-85
2021/04/05 03:01:15;;;;;;;42.00;10.90;;;6.70;99.90;;;;;;5045417;28;20467;-85
2021/04/05 03:03:42;;;;;;;39.47;10.18;;;6.70;99.90;;;;;;5053114;28;20459;-84
2021/04/05 03:06:12;;;;;;;40.47;9.77;;;6.80;99.90;;;;;;5036204;28;20064;-84
2021/04/05 03:08:37;;;;;;;39.20;9.65;;;6.70;99.90;;;;;;5036784;28;20450;-84
2021/04/05 03:11:04;;;;;;;19.67;6.40;;;6.80;99.90;;;;;;5052186;28;20028;-84
2021/04/05 03:13:34;;;;;;;19.35;6.40;;;6.80;99.90;;;;;;5070896;28;20047;-84
2021/04/05 03:16:03;;;;;;;13.75;3.22;;;6.60;99.90;;;;;;5052324;28;20060;-84
2021/04/05 03:18:31;;;;;;;16.75;3.60;;;6.20;99.90;;;;;;5033458;28;20102;-85
2021/04/05 03:20:58;;;;;;;11.30;2.47;;;6.00;99.90;;;;;;5061429;28;20108;-84
2021/04/05 03:23:24;;;;;;;18.77;3.65;;;5.90;99.90;;;;;;5052900;28;20044;-84
2021/04/05 03:25:51;;;;;;;13.50;2.42;;;5.80;99.90;;;;;;5051978;28;20294;-86
2021/04/05 03:28:17;;;;;;;13.65;3.08;;;5.70;99.90;;;;;;5032691;28;20033;-86
2021/04/05 03:31:19;;;;;;;14.70;3.55;;;5.70;99.90;;;;;;5045199;28;20040;-85
2021/04/05 03:33:54;;;;;;;17.98;3.70;;;5.80;99.90;;;;;;5042153;28;20484;-86
2021/04/05 03:36:36;;;;;;;25.27;5.70;;;5.80;99.90;;;;;;5061104;28;20041;-85
2021/04/05 03:39:03;;;;;;;21.65;3.90;;;5.80;99.90;;;;;;5045556;28;20053;-85
2021/04/05 03:42:00;;;;;;;21.85;3.45;;;5.80;99.90;;;;;;5009789;28;20416;-85
2021/04/05 03:44:46;;;;;;;6.43;1.45;;;5.70;99.90;;;;;;5069466;28;20084;-85
2021/04/05 03:47:29;;;;;;;9.82;1.10;;;5.40;99.90;;;;;;5058543;28;20036;-85
2021/04/05 03:50:16;;;;;;;4.65;0.68;;;5.20;99.90;;;;;;5069115;28;20056;-85
2021/04/05 03:53:19;;;;;;;4.70;1.05;;;5.10;99.90;;;;;;5070168;28;20484;-84
2021/04/05 03:55:55;;;;;;;8.95;1.05;;;4.90;99.90;;;;;;5040560;28;20045;-86
2021/04/05 03:58:23;;;;;;;11.32;0.90;;;4.80;99.90;;;;;;5070152;28;20078;-84
2021/04/05 04:00:50;;;;;;;8.20;0.98;;;4.80;99.90;;;;;;5069409;28;20048;-85
2021/04/05 04:03:21;;;;;;;6.57;1.00;;;4.80;99.90;;;;;;5051659;28;20044;-85
2021/04/05 04:05:56;;;;;;;1.85;0.73;;;4.80;99.90;;;;;;5069532;28;20045;-86
2021/04/05 04:10:54;;;;;;;6.75;1.13;;;4.70;99.90;;;;;;5069112;28;20416;-85
2021/04/05 04:13:24;;;;;;;4.32;0.77;;;4.50;99.90;;;;;;5032341;28;20037;-85
2021/04/05 04:15:51;;;;;;;1.33;0.73;;;4.10;99.90;;;;;;5064495;28;20430;-85
2021/04/05 04:18:18;;;;;;;6.22;0.88;;;4.10;99.90;;;;;;5032146;28;20122;-85
2021/04/05 04:20:45;;;;;;;4.93;1.25;;;3.90;99.90;;;;;;5046354;28;20516;-85
2021/04/05 04:23:12;;;;;;;3.40;0.85;;;3.90;99.90;;;;;;5031051;28;20091;-85
2021/04/05 04:25:39;;;;;;;5.20;0.98;;;3.90;99.90;;;;;;5044747;28;20439;-85
2021/04/05 04:28:05;;;;;;;5.15;0.93;;;4.00;99.90;;;;;;5050739;28;20110;-86
2021/04/05 04:30:32;;;;;;;4.80;1.50;;;3.90;99.90;;;;;;5051787;28;20590;-85
2021/04/05 04:33:05;;;;;;;8.27;0.80;;;3.80;99.90;;;;;;5049751;28;20431;-85
2021/04/05 04:35:32;;;;;;;14.10;1.67;;;3.90;99.90;;;;;;5051853;28;20048;-86
2021/04/05 04:38:02;;;;;;;6.93;0.82;;;3.90;99.90;;;;;;5066821;28;20442;-85
2021/04/05 04:40:30;;;;;;;9.18;1.13;;;3.90;99.90;;;;;;5049144;28;20050;-86
2021/04/05 04:43:02;;;;;;;7.40;1.08;;;3.90;99.90;;;;;;5033619;28;20059;-85
2021/04/05 04:45:28;;;;;;;3.40;0.52;;;3.90;99.90;;;;;;5050632;28;20045;-85
2021/04/05 04:47:55;;;;;;;9.07;1.70;;;4.00;99.90;;;;;;5066648;28;20105;-83
2021/04/05 04:50:23;;;;;;;3.95;0.65;;;3.90;99.90;;;;;;5066741;28;20043;-83
2021/04/05 04:52:49;;;;;;;9.05;1.35;;;3.60;99.90;;;;;;5068956;28;20044;-86
2021/04/05 04:55:18;;;;;;;7.00;0.82;;;3.30;99.90;;;;;;5033868;28;20048;-85
2021/04/05 04:57:44;;;;;;;12.70;1.85;;;3.30;99.90;;;;;;5034326;28;20132;-85
2021/04/05 05:00:11;;;;;;;4.55;1.00;;;3.30;99.90;;;;;;5031203;28;20025;-85
2021/04/05 05:02:41;;;;;;;11.63;1.40;;;3.30;99.90;;;;;;5069226;28;20041;-84
2021/04/05 05:05:10;;;;;;;10.75;1.48;;;3.40;99.90;;;;;;5033862;28;20036;-84
2021/04/05 05:07:38;;;;;;;9.98;1.88;;;3.30;99.90;;;;;;5050735;28;20040;-84
2021/04/05 05:10:09;;;;;;;13.05;0.90;;;3.20;99.90;;;;;;5068294;28;20120;-83
2021/04/05 05:12:36;;;;;;;2.80;0.60;;;3.10;99.90;;;;;;5050947;28;20059;-83
2021/04/05 05:15:02;;;;;;;13.88;1.27;;;3.00;99.90;;;;;;5030611;28;20098;-82
2021/04/05 05:17:29;;;;;;;9.63;1.73;;;3.00;99.90;;;;;;5043719;28;20053;-81
2021/04/05 05:19:55;;;;;;;15.40;2.05;;;3.00;99.90;;;;;;5049798;28;20048;-86
2021/04/05 05:22:22;;;;;;;12.98;1.80;;;2.90;99.90;;;;;;5066709;28;20037;-83
2021/04/05 05:24:50;;;;;;;3.13;1.08;;;3.00;99.90;;;;;;5037079;28;20047;-83
2021/04/05 05:27:19;;;;;;;8.10;1.20;;;2.90;99.90;;;;;;5030888;28;20051;-82
2021/04/05 05:29:45;;;;;;;10.13;1.25;;;2.90;99.90;;;;;;5049720;28;20404;-83
2021/04/05 05:32:11;;;;;;;14.07;1.48;;;2.90;99.90;;;;;;5030249;28;20045;-85
2021/04/05 05:34:39;;;;;;;12.25;1.58;;;3.00;99.90;;;;;;5049973;28;20044;-83
2021/04/05 05:37:05;;;;;;;16.55;1.88;;;3.00;99.90;;;;;;5050120;28;20044;-82
2021/04/05 05:39:31;;;;;;;12.60;1.88;;;3.20;99.90;;;;;;5050534;28;20049;-83
2021/04/05 05:42:06;;;;;;;8.20;1.63;;;3.10;99.90;;;;;;5033663;28;20124;-85
2021/04/05 05:45:08;;;;;;;15.48;1.85;;;3.00;99.90;;;;;;5054481;28;20094;-83
2021/04/05 05:47:47;;;;;;;11.82;1.77;;;3.00;99.90;;;;;;5010170;28;20053;-82
2021/04/05 05:50:37;;;;;;;10.82;1.98;;;3.10;99.90;;;;;;5059504;28;20052;-83
2021/04/05 05:53:15;;;;;;;7.60;1.52;;;3.20;99.90;;;;;;5054086;28;20045;-83
2021/04/05 05:56:18;;;;;;;3.97;1.08;;;3.10;99.90;;;;;;5072505;28;20040;-83
2021/04/05 05:58:50;;;;;;;10.25;1.58;;;3.20;99.90;;;;;;5066180;28;20377;-83
2021/04/05 06:01:35;;;;;;;10.75;1.60;;;3.20;99.90;;;;;;5053726;28;20040;-83
2021/04/05 06:04:22;;;;;;;10.67;1.30;;;3.10;99.90;;;;;;5053540;28;20044;-83
2021/04/05 06:06:48;;;;;;;3.63;1.15;;;3.10;99.90;;;;;;5037498;28;20493;-83
2021/04/05 06:09:17;;;;;;;13.05;1.90;;;3.30;99.90;;;;;;5066388;28;20040;-83
2021/04/05 06:11:52;;;;;;;6.30;1.67;;;3.30;99.90;;;;;;5072239;28;20041;-83
2021/04/05 06:14:36;;;;;;;8.73;1.63;;;3.50;99.90;;;;;;5071330;28;20044;-83
2021/04/05 06:17:02;;;;;;;11.48;1.48;;;3.50;99.90;;;;;;5071194;28;20032;-83
2021/04/05 06:19:45;;;;;;;10.75;2.22;;;3.50;99.90;;;;;;5064160;28;20442;-84
2021/04/05 06:22:32;;;;;;;7.93;1.83;;;3.60;99.90;;;;;;5036897;28;20441;-83
2021/04/05 06:25:11;;;;;;;8.27;1.55;;;3.70;99.90;;;;;;5041366;28;20415;-86
2021/04/05 06:28:01;;;;;;;24.15;3.13;;;3.70;99.90;;;;;;5053701;28;20036;-85
2021/04/05 06:30:57;;;;;;;14.57;2.33;;;3.70;99.90;;;;;;5054052;28;20143;-83
2021/04/05 06:33:35;;;;;;;15.82;3.85;;;3.60;99.90;;;;;;5058116;28;20298;-83
2021/04/05 06:36:26;;;;;;;17.95;2.47;;;3.50;99.90;;;;;;5036600;28;20044;-86
2021/04/05 06:39:01;;;;;;;17.05;2.25;;;3.50;99.90;;;;;;5070377;28;20504;-84
2021/04/05 06:41:36;;;;;;;9.88;1.50;;;3.50;99.90;;;;;;5053770;28;20037;-83
2021/04/05 06:44:30;;;;;;;13.65;2.08;;;3.60;99.90;;;;;;5053751;28;20047;-86
2021/04/05 06:47:27;;;;;;;12.32;1.77;;;3.60;99.90;;;;;;5039598;28;20033;-84
2021/04/05 06:50:17;;;;;;;10.85;2.53;;;3.70;99.90;;;;;;5043505;28;20595;-85
2021/04/05 06:52:57;;;;;;;10.50;2.42;;;3.50;99.90;;;;;;5063222;28;20044;-85
2021/04/05 06:55:31;;;;;;;7.78;2.10;;;3.40;99.90;;;;;;5051923;28;20033;-85
2021/04/05 06:58:08;;;;;;;5.63;1.80;;;3.50;99.90;;;;;;5071546;28;20045;-85
2021/04/05 07:01:09;;;;;;;8.05;1.08;;;3.40;99.90;;;;;;5061929;28;20052;-85
2021/04/05 07:03:53;;;;;;;7.20;1.50;;;3.50;99.90;;;;;;5050489;28;20039;-84
2021/04/05 07:06:49;;;;;;;5.15;1.10;;;3.50;99.90;;;;;;5061710;28;20045;-84
2021/04/05 07:09:38;;;;;;;8.00;1.42;;;3.60;99.90;;;;;;5068376;28;20056;-84
2021/04/05 07:12:28;;;;;;;3.72;0.80;;;3.80;99.90;;;;;;5043221;28;20128;-85
2021/04/05 07:15:10;;;;;;;3.75;0.77;;;3.90;99.90;;;;;;5044233;28;20131;-85
2021/04/05 07:17:57;;;;;;;10.75;1.58;;;4.00;99.90;;;;;;5068498;28;20076;-84
2021/04/05 07:20:39;;;;;;;8.65;1.63;;;4.10;99.90;;;;;;5070130;28;20595;-84
2021/04/05 07:23:35;;;;;;;9.85;1.92;;;4.00;99.90;;;;;;5050305;28;20048;-86
2021/04/05 07:26:29;;;;;;;10.70;1.63;;;4.00;99.90;;;;;;5051659;28;20059;-84
2021/04/05 07:29:18;;;;;;;7.60;1.98;;;3.90;99.90;;;;;;5048828;28;20416;-83
2021/04/05 07:31:56;;;;;;;13.45;2.03;;;3.40;99.90;;;;;;5070414;28;20047;-83
2021/04/05 07:34:46;;;;;;;1.73;0.85;;;3.00;99.90;;;;;;5026519;28;20049;-84
2021/04/05 07:37:24;;;;;;;7.85;0.88;;;2.70;99.90;;;;;;5047355;28;20049;-83
2021/04/05 07:39:59;;;;;;;3.13;0.90;;;2.20;99.90;;;;;;5069562;28;20055;-83
2021/04/05 07:42:47;;;;;;;0.98;0.40;;;1.90;99.90;;;;;;5064684;28;20056;-86
2021/04/05 07:45:33;;;;;;;8.00;1.17;;;1.80;99.90;;;;;;5065602;28;20102;-87
2021/04/05 07:48:16;;;;;;;11.30;1.25;;;1.80;99.90;;;;;;5049820;28;20036;-84
2021/04/05 07:51:08;;;;;;;6.25;1.15;;;1.70;99.90;;;;;;5052102;28;20043;-83
2021/04/05 07:54:01;;;;;;;6.72;1.48;;;1.40;99.90;;;;;;5066553;28;20037;-85
2021/04/05 07:57:03;;;;;;;10.40;1.58;;;1.30;99.90;;;;;;5050657;28;20037;-83
2021/04/05 07:59:47;;;;;;;11.45;1.80;;;1.10;99.90;;;;;;5005784;28;20092;-83
2021/04/05 08:02:36;;;;;;;15.98;1.77;;;1.10;99.90;;;;;;5046132;28;20125;-83
2021/04/05 08:05:26;;;;;;;14.80;2.72;;;1.30;99.90;;;;;;5047183;28;20033;-83
2021/04/05 08:08:17;;;;;;;6.85;1.60;;;1.30;99.90;;;;;;5040696;28;20524;-83
2021/04/05 08:11:04;;;;;;;8.65;1.70;;;1.40;99.90;;;;;;5047783;28;20123;-82
2021/04/05 08:13:47;;;;;;;16.73;1.73;;;1.50;99.90;;;;;;5051289;28;20927;-81
2021/04/05 08:16:45;;;;;;;12.73;2.33;;;1.50;99.90;;;;;;5047649;28;20477;-82
2021/04/05 08:19:52;;;;;;;15.13;1.77;;;1.70;99.90;;;;;;5050732;28;20076;-83
2021/04/05 08:22:32;;;;;;;20.80;3.03;;;1.80;99.90;;;;;;5033833;28;20081;-82
2021/04/05 08:25:01;;;;;;;12.47;2.50;;;1.90;99.90;;;;;;5039360;28;20495;-82
2021/04/05 08:27:47;;;;;;;9.75;1.67;;;2.00;99.90;;;;;;5066607;28;20895;-81
2021/04/05 08:30:26;;;;;;;23.42;1.98;;;2.10;99.90;;;;;;5030366;28;20052;-81
2021/04/05 08:33:11;;;;;;;9.85;2.17;;;2.10;99.90;;;;;;5051258;28;20472;-82
2021/04/05 08:35:51;;;;;;;24.23;2.85;;;2.10;99.90;;;;;;5051282;28;20089;-82
2021/04/05 08:38:30;;;;;;;15.02;2.05;;;2.20;99.90;;;;;;5068440;28;20084;-82
2021/04/05 08:41:21;;;;;;;9.38;1.63;;;2.20;99.90;;;;;;5046617;28;20041;-84
2021/04/05 08:44:00;;;;;;;14.55;3.03;;;2.40;99.90;;;;;;5023085;28;20428;-82
2021/04/05 08:46:30;;;;;;;13.13;2.20;;;2.70;99.90;;;;;;5050488;28;20090;-84
2021/04/05 08:49:03;;;;;;;8.38;2.35;;;3.00;99.90;;;;;;5069325;28;20098;-82
2021/04/05 08:51:35;;;;;;;17.65;2.00;;;3.20;99.90;;;;;;5050376;28;20040;-82
2021/04/05 08:54:04;;;;;;;22.65;2.80;;;3.40;99.90;;;;;;5068946;28;20403;-82
2021/04/05 08:56:35;;;;;;;14.95;2.35;;;3.30;99.90;;;;;;5050230;28;20115;-82
2021/04/05 08:59:08;;;;;;;20.27;2.88;;;3.00;99.90;;;;;;5042519;28;20044;-81
2021/04/05 09:02:04;;;;;;;11.45;2.03;;;2.70;99.90;;;;;;5064020;28;20507;-82
2021/04/05 09:04:31;;;;;;;17.48;1.92;;;2.20;99.90;;;;;;5047219;28;20048;-82
2021/04/05 09:07:22;;;;;;;10.52;1.70;;;2.00;99.90;;;;;;5067524;28;20040;-82
2021/04/05 09:09:51;;;;;;;20.13;2.72;;;2.10;99.90;;;;;;5039995;28;20110;-82
2021/04/05 09:12:19;;;;;;;9.68;1.63;;;2.30;99.90;;;;;;5063084;28;20051;-82
2021/04/05 09:14:59;;;;;;;9.98;1.75;;;2.40;99.90;;;;;;5069000;28;20056;-82
2021/04/05 09:17:41;;;;;;;24.90;3.45;;;2.60;99.90;;;;;;5055371;28;20486;-82
2021/04/05 09:20:28;;;;;;;14.27;2.55;;;2.70;99.90;;;;;;5055096;28;20044;-84
2021/04/05 09:23:33;;;;;;;11.43;2.03;;;2.80;99.90;;;;;;5055053;28;20039;-82
2021/04/05 09:26:30;;;;;;;8.48;1.75;;;3.20;99.90;;;;;;5043793;28;20048;-83
2021/04/05 09:29:14;;;;;;;16.48;2.33;;;3.20;93.70;;;;;;5064752;28;20089;-83
2021/04/05 09:31:58;;;;;;;17.08;1.85;;;3.20;91.10;;;;;;5060562;28;20044;-82
2021/04/05 09:34:36;;;;;;;6.35;1.30;;;3.30;89.60;;;;;;5053909;28;20093;-83
2021/04/05 09:37:25;;;;;;;6.45;1.60;;;3.40;94.40;;;;;;5072389;28;20044;-82
2021/04/05 09:40:08;;;;;;;5.15;1.95;;;3.50;94.80;;;;;;5054206;28;20049;-82
2021/04/05 09:42:44;;;;;;;29.80;2.90;;;3.50;92.10;;;;;;5052797;28;20036;-84
2021/04/05 09:45:35;;;;;;;8.50;1.63;;;3.50;91.70;;;;;;5039928;28;20044;-82
2021/04/05 09:48:19;;;;;;;;;;;3.60;92.30;;;;;;5072901;28;20048;-82
2021/04/05 09:51:04;;;;;;;9.70;1.67;;;3.70;95.40;;;;;;5040261;28;19974;-82
2021/04/05 09:53:56;;;;;;;15.68;1.20;;;3.80;92.80;;;;;;5024347;28;21476;-82
2021/04/05 09:56:26;;;;;;;1.60;0.82;;;3.90;62.30;;;;;;5036454;28;20573;-83
2021/04/05 09:59:05;;;;;;;3.95;1.20;;;4.10;69.40;;;;;;5052087;28;20484;-83
2021/04/05 10:01:33;;;;;;;12.63;1.92;;;3.60;90.10;;;;;;5047498;28;20074;-84
2021/04/05 10:04:06;;;;;;;20.73;2.75;;;3.30;98.00;;;;;;5037602;28;20047;-83
2021/04/05 10:06:34;;;;;;;4.75;0.50;;;3.00;99.90;;;;;;5024828;28;20398;-83
2021/04/05 10:09:04;;;;;;;3.38;0.80;;;3.10;91.20;;;;;;5036114;28;20048;-83
2021/04/05 10:11:33;;;;;;;2.80;0.98;;;3.40;79.00;;;;;;5033532;28;20136;-83
2021/04/05 10:14:06;;;;;;;4.32;1.17;;;3.60;77.20;;;;;;5066746;28;20076;-82
2021/04/05 10:16:35;;;;;;;2.50;0.95;;;3.70;77.20;;;;;;5052368;28;20048;-82
2021/04/05 10:19:06;;;;;;;7.25;2.17;;;3.80;79.80;;;;;;5048012;28;20047;-83
2021/04/05 10:21:35;;;;;;;4.15;1.52;;;3.70;98.20;;;;;;5053085;28;20052;-82
2021/04/05 10:24:04;;;;;;;3.38;0.82;;;3.70;94.60;;;;;;5053603;28;20106;-82
2021/04/05 10:26:33;;;;;;;4.53;1.98;;;3.60;96.50;;;;;;5071098;28;20044;-82
2021/04/05 10:29:02;;;;;;;6.32;1.52;;;3.40;94.50;;;;;;5064782;28;20044;-82
2021/04/05 10:31:29;;;;;;;6.95;1.15;;;3.10;97.00;;;;;;5052733;28;20071;-83
2021/04/05 10:34:05;;;;;;;7.07;0.80;;;2.50;99.90;;;;;;5070129;28;20052;-82
2021/04/05 10:36:45;;;;;;;1.98;0.80;;;1.80;99.90;;;;;;5053018;28;20044;-83
2021/04/05 10:39:11;;;;;;;2.22;0.65;;;1.10;99.90;;;;;;5053299;28;20535;-82
2021/04/05 10:41:44;;;;;;;2.83;0.47;;;0.80;99.90;;;;;;5069959;28;20040;-82
2021/04/05 10:44:13;;;;;;;2.88;1.13;;;0.70;99.90;;;;;;5062649;28;20041;-82
2021/04/05 10:46:42;;;;;;;5.95;1.20;;;0.80;99.90;;;;;;5070180;28;20104;-82
2021/04/05 10:49:16;;;;;;;8.02;1.70;;;1.00;99.90;;;;;;5053350;28;20053;-82
2021/04/05 10:51:57;;;;;;;7.05;1.33;;;1.00;99.90;;;;;;5070477;28;20591;-82
2021/04/05 10:54:32;;;;;;;5.60;1.15;;;1.10;99.90;;;;;;5046988;28;20724;-84
2021/04/05 10:57:04;;;;;;;8.25;1.02;;;1.20;99.90;;;;;;5049834;28;20036;-84
2021/04/05 10:59:51;;;;;;;10.65;0.95;;;1.30;99.90;;;;;;5041844;28;20106;-82
2021/04/05 11:02:35;;;;;;;7.88;1.33;;;1.40;99.90;;;;;;5062640;28;20115;-82
2021/04/05 11:05:09;;;;;;;7.07;1.88;;;1.90;99.90;;;;;;5052815;28;20041;-82
2021/04/05 11:07:36;;;;;;;14.57;1.92;;;2.00;99.90;;;;;;5067482;28;20040;-82
2021/04/05 11:10:06;;;;;;;13.90;1.75;;;2.00;99.90;;;;;;5034398;28;20423;-82
2021/04/05 11:12:44;;;;;;;8.13;1.90;;;2.30;99.90;;;;;;5066674;28;20040;-83
2021/04/05 11:15:14;;;;;;;9.90;1.85;;;2.60;99.90;;;;;;5066986;28;20044;-82
2021/04/05 11:17:50;;;;;;;5.22;1.33;;;3.00;99.90;;;;;;5041525;28;20048;-83
2021/04/05 11:20:19;;;;;;;7.45;1.38;;;3.40;99.90;;;;;;5058742;28;20045;-83
2021/04/05 11:22:54;;;;;;;15.82;1.92;;;3.50;99.90;;;;;;5052405;28;20049;-84
2021/04/05 11:25:28;;;;;;;8.20;0.95;;;3.50;99.90;;;;;;5053621;28;20052;-81
2021/04/05 11:28:08;;;;;;;12.07;1.73;;;3.70;99.50;;;;;;5069467;28;20032;-82
2021/04/05 11:30:36;;;;;;;17.00;1.92;;;4.10;99.90;;;;;;5068381;28;20047;-82
2021/04/05 11:33:02;;;;;;;15.80;1.88;;;4.20;99.90;;;;;;5047894;28;20067;-84
2021/04/05 11:35:33;;;;;;;3.22;0.70;;;4.00;99.90;;;;;;5046709;28;20037;-83
2021/04/05 11:38:20;;;;;;;9.60;1.65;;;3.80;99.90;;;;;;5051289;28;20048;-83
2021/04/05 11:41:00;;;;;;;9.90;1.58;;;3.80;99.90;;;;;;5057766;28;20927;-83
2021/04/05 11:43:32;;;;;;;3.10;0.63;;;4.00;99.90;;;;;;5050716;28;20043;-85
2021/04/05 11:46:06;;;;;;;4.32;1.10;;;4.10;99.90;;;;;;5068549;28;20396;-83
2021/04/05 11:48:33;;;;;;;10.00;1.08;;;4.00;99.90;;;;;;5068730;28;20040;-83
2021/04/05 11:50:59;;;;;;;7.53;1.65;;;4.00;99.90;;;;;;5018133;28;20064;-83
2021/04/05 11:53:52;;;;;;;13.55;1.85;;;3.90;99.90;;;;;;5068709;28;20040;-84
2021/04/05 11:56:30;;;;;;;5.57;1.42;;;4.00;99.90;;;;;;5048280;28;20040;-84
2021/04/05 11:59:05;;;;;;;11.55;1.40;;;4.20;97.30;;;;;;5043398;28;20052;-84
2021/04/05 12:01:57;;;;;;;16.05;1.80;;;4.50;93.70;;;;;;5046630;28;20045;-83
2021/04/05 12:04:34;;;;;;;7.18;1.52;;;4.80;99.90;;;;;;5030822;28;20048;-83
2021/04/05 12:07:10;;;;;;;9.18;2.22;;;4.60;99.90;;;;;;5069040;28;20051;-83
2021/04/05 12:10:01;;;;;;;6.95;1.40;;;4.10;94.10;;;;;;5046563;28;20048;-82
2021/04/05 12:12:44;;;;;;;3.00;1.60;;;3.90;94.90;;;;;;5034064;28;20056;-84
2021/04/05 12:15:15;;;;;;;5.40;0.70;;;4.10;90.30;;;;;;5051297;28;20135;-82
2021/04/05 12:17:47;;;;;;;3.70;0.68;;;4.30;83.90;;;;;;5050152;28;20047;-80
2021/04/05 12:20:14;;;;;;;7.57;0.85;;;4.70;95.00;;;;;;5048613;28;20039;-82
2021/04/05 12:22:41;;;;;;;7.18;1.02;;;4.70;86.20;;;;;;5032774;28;20465;-81
2021/04/05 12:25:08;;;;;;;3.85;1.42;;;4.90;85.10;;;;;;5039461;28;20389;-81
2021/04/05 12:27:37;;;;;;;8.30;2.08;;;5.00;86.30;;;;;;5050480;28;20047;-81
2021/04/05 12:30:24;;;;;;;3.22;1.20;;;4.80;73.00;;;;;;5068018;28;20028;-83
2021/04/05 12:32:55;;;;;;;9.43;1.63;;;5.10;86.80;;;;;;5042664;28;20037;-81
2021/04/05 12:35:22;;;;;;;4.88;1.15;;;5.30;90.90;;;;;;5055970;28;20586;-82
2021/04/05 12:37:56;;;;;;;5.90;1.63;;;5.40;92.90;;;;;;5067939;28;20285;-80
2021/04/05 12:40:25;;;;;;;9.05;1.67;;;4.90;89.10;;;;;;5068643;28;20484;-81
2021/04/05 12:42:53;;;;;;;6.47;1.67;;;4.90;92.10;;;;;;5068054;28;20115;-81
2021/04/05 12:45:20;;;;;;;14.40;2.22;;;5.40;93.80;;;;;;5033615;28;20036;-83
2021/04/05 12:47:50;;;;;;;10.25;2.42;;;5.40;97.40;;;;;;5017113;28;20451;-81
2021/04/05 12:50:21;;;;;;;5.80;1.75;;;5.30;96.20;;;;;;5043022;28;20159;-81
2021/04/05 12:52:48;;;;;;;;;;;5.20;99.30;;;;;;5033961;28;20047;-81
2021/04/05 12:55:19;;;;;;;11.63;2.40;;;4.90;98.70;;;;;;5050625;28;19960;-81
2021/04/05 12:57:45;;;;;;;10.35;2.13;;;5.00;99.90;;;;;;5049886;28;20115;-81
2021/04/05 13:00:14;;;;;;;18.42;2.80;;;4.30;99.90;;;;;;5066890;28;20043;-81
2021/04/05 13:02:44;;;;;;;14.45;2.30;;;3.80;99.90;;;;;;5066239;28;20045;-82
2021/04/05 13:05:22;;;;;;;10.80;1.90;;;3.50;99.90;;;;;;5068176;28;20526;-81
2021/04/05 13:08:11;;;;;;;16.00;2.88;;;3.20;99.90;;;;;;5067882;28;20279;-83
2021/04/05 13:10:52;;;;;;;12.30;1.92;;;3.30;99.90;;;;;;5048292;28;20076;-82
2021/04/05 13:13:21;;;;;;;11.43;1.92;;;3.80;99.90;;;;;;5067199;28;20510;-82
2021/04/05 13:15:58;;;;;;;2.50;1.10;;;3.50;99.90;;;;;;5047199;28;20047;-82
2021/04/05 13:18:29;;;;;;;12.02;1.42;;;3.60;99.90;;;;;;5050588;28;20045;-82
2021/04/05 13:21:02;;;;;;;5.63;1.08;;;3.60;99.90;;;;;;5045798;28;20045;-81
2021/04/05 13:23:32;;;;;;;4.18;1.10;;;3.60;99.90;;;;;;5049930;28;20083;-82
2021/04/05 13:26:04;;;;;;;5.72;1.08;;;3.70;99.70;;;;;;5067277;28;20045;-82
2021/04/05 13:28:30;;;;;;;5.53;0.77;;;4.00;98.30;;;;;;5050370;28;20135;-82
2021/04/05 13:31:03;;;;;;;9.07;1.40;;;4.30;96.80;;;;;;5030383;28;20048;-82
2021/04/05 13:33:30;;;;;;;7.00;1.50;;;4.90;99.90;;;;;;5068016;28;20106;-82